Time;durP1;ratioP1;P1;durP2;ratioP2;P2;SDS_P1;SDS_P2;PMS_P1;PMS_P2;Temp;Humidity;BMP_temperature;BMP_pressure;BME280_temperature;BME280_humidity;BME280_pressure;Samples;Min_cycle;Max_cycle;Signal;HPM_P1;HPM_P2
2022/01/18 00:00:54;;;;;;;0.10;0.10;;;6.00;99.90;;;;;;4977149;28;20023;-76
2022/01/18 00:03:19;;;;;;;0.10;0.10;;;6.00;99.90;;;;;;4985188;28;20030;-78
2022/01/18 00:05:48;;;;;;;0.08;0.08;;;6.00;99.90;;;;;;4975839;28;20057;-78
2022/01/18 00:08:15;;;;;;;0.13;0.13;;;6.00;99.90;;;;;;4976734;28;20030;-78
2022/01/18 00:10:41;;;;;;;0.20;0.20;;;6.00;99.90;;;;;;4991915;28;20390;-78
2022/01/18 00:13:24;;;;;;;0.93;0.90;;;5.90;99.90;;;;;;4991609;28;20125;-76
2022/01/18 00:18:31;;;;;;;0.00;0.00;;;6.00;99.90;;;;;;4976152;28;20046;-78
2022/01/18 00:23:33;;;;;;;0.10;0.10;;;5.90;99.90;;;;;;4976589;28;20082;-78
2022/01/18 00:25:59;;;;;;;0.40;0.40;;;5.90;99.90;;;;;;4977923;28;20027;-78
2022/01/18 00:28:27;;;;;;;0.20;0.20;;;5.80;99.90;;;;;;4995291;28;20022;-78
2022/01/18 00:36:22;;;;;;;1.52;1.33;;;5.80;99.90;;;;;;4968217;28;20034;-78
2022/01/18 00:38:48;;;;;;;0.00;0.00;;;5.80;99.90;;;;;;4995708;28;20560;-77
2022/01/18 00:41:17;;;;;;;0.08;0.08;;;5.80;99.90;;;;;;4994660;28;20109;-76
2022/01/18 00:43:44;;;;;;;0.10;0.10;;;5.80;99.90;;;;;;4994154;28;20030;-76
2022/01/18 00:46:11;;;;;;;0.70;0.57;;;5.70;99.90;;;;;;4981524;28;20030;-78
2022/01/18 00:48:37;;;;;;;0.00;0.00;;;5.70;99.90;;;;;;4975397;28;20027;-77
2022/01/18 00:51:05;;;;;;;0.00;0.00;;;5.60;99.90;;;;;;4976273;28;20031;-78
2022/01/18 00:53:33;;;;;;;0.45;0.45;;;5.60;99.90;;;;;;4975742;28;20034;-76
2022/01/18 00:58:38;;;;;;;0.20;0.20;;;5.50;99.90;;;;;;4975982;28;20158;-78
2022/01/18 01:01:03;;;;;;;0.00;0.00;;;5.50;99.90;;;;;;4976015;28;20023;-78
2022/01/18 01:03:29;;;;;;;0.20;0.20;;;5.50;99.90;;;;;;4989825;28;20082;-78
2022/01/18 01:05:55;;;;;;;0.10;0.10;;;5.50;99.90;;;;;;4994193;28;20038;-76
2022/01/18 01:08:21;;;;;;;0.10;0.10;;;5.40;99.90;;;;;;4993665;28;20034;-78
2022/01/18 01:10:47;;;;;;;1.40;0.80;;;5.40;99.90;;;;;;4994627;28;20045;-77
2022/01/18 01:13:14;;;;;;;0.32;0.32;;;5.40;99.90;;;;;;4994961;28;20054;-76
2022/01/18 01:35:04;;;;;;;0.10;0.10;;;5.50;99.90;;;;;;4971896;28;20038;-77
2022/01/18 01:45:27;;;;;;;0.20;0.20;;;5.50;99.90;;;;;;4994420;28;20023;-76
2022/01/18 01:47:54;;;;;;;0.17;0.17;;;5.50;99.90;;;;;;4993220;28;20038;-76
2022/01/18 01:50:22;;;;;;;3.25;0.57;;;5.60;99.90;;;;;;4994543;28;20034;-77
2022/01/18 01:52:50;;;;;;;0.70;0.70;;;5.60;99.90;;;;;;4993750;28;20056;-76
2022/01/18 01:55:17;;;;;;;0.35;0.35;;;5.60;99.90;;;;;;4994053;28;20098;-77
2022/01/18 01:57:43;;;;;;;0.00;0.00;;;5.60;99.90;;;;;;4994198;28;20029;-78
2022/01/18 02:00:13;;;;;;;0.85;0.85;;;5.60;99.90;;;;;;4993013;28;20034;-77
2022/01/18 02:02:39;;;;;;;0.30;0.30;;;5.60;99.90;;;;;;4993041;28;20125;-77
2022/01/18 02:05:06;;;;;;;0.20;0.20;;;5.60;99.90;;;;;;4989609;28;20111;-77
2022/01/18 02:07:31;;;;;;;0.10;0.10;;;5.60;99.90;;;;;;4974554;28;20414;-77
2022/01/18 02:09:57;;;;;;;0.13;0.03;;;5.60;99.90;;;;;;4974529;28;20022;-78
2022/01/18 02:12:23;;;;;;;0.00;0.00;;;5.60;99.90;;;;;;4989566;28;20129;-77
2022/01/18 02:14:56;;;;;;;0.25;0.25;;;5.60;99.90;;;;;;4989275;28;20039;-77
2022/01/18 02:23:07;;;;;;;0.00;0.00;;;5.60;99.90;;;;;;4974466;28;20042;-78
2022/01/18 02:25:33;;;;;;;0.17;0.17;;;5.60;99.90;;;;;;4973235;28;20035;-76
2022/01/18 02:27:58;;;;;;;0.00;0.00;;;5.60;99.90;;;;;;4990569;28;20030;-78
2022/01/18 02:30:24;;;;;;;1.15;0.55;;;5.60;99.90;;;;;;4993639;28;20026;-78
2022/01/18 02:32:50;;;;;;;0.00;0.00;;;5.50;99.90;;;;;;4993553;28;20038;-78
2022/01/18 02:35:15;;;;;;;0.55;0.55;;;5.50;99.90;;;;;;4993869;28;20026;-76
2022/01/18 02:37:41;;;;;;;0.08;0.08;;;5.50;99.90;;;;;;4993392;28;20037;-77
2022/01/18 02:40:07;;;;;;;0.05;0.05;;;5.50;99.90;;;;;;4993711;28;20027;-78
2022/01/18 02:42:43;;;;;;;0.00;0.00;;;5.30;99.90;;;;;;4993470;28;20036;-76
2022/01/18 02:45:09;;;;;;;0.05;0.05;;;5.20;99.90;;;;;;4989020;28;20537;-77
2022/01/18 02:47:34;;;;;;;0.00;0.00;;;5.00;99.90;;;;;;4974043;28;20026;-77
2022/01/18 02:50:00;;;;;;;0.30;0.30;;;4.90;99.90;;;;;;4972698;28;20027;-76
2022/01/18 02:52:26;;;;;;;0.20;0.20;;;4.80;99.90;;;;;;4973700;28;20034;-76
2022/01/18 02:54:51;;;;;;;0.20;0.20;;;4.70;99.90;;;;;;4973512;28;20111;-78
2022/01/18 02:57:25;;;;;;;0.60;0.10;;;4.60;99.90;;;;;;4974040;28;20023;-78
2022/01/18 03:00:06;;;;;;;0.13;0.13;;;4.60;99.90;;;;;;4974128;28;20030;-78
2022/01/18 03:05:17;;;;;;;0.00;0.00;;;4.40;99.90;;;;;;4990277;28;20076;-77
2022/01/18 03:07:43;;;;;;;0.00;0.00;;;4.30;99.90;;;;;;4992998;28;20054;-78
2022/01/18 03:10:11;;;;;;;0.70;0.65;;;4.30;99.90;;;;;;4993037;28;20077;-78
2022/01/18 03:12:37;;;;;;;0.00;0.00;;;4.30;99.90;;;;;;4993092;28;20034;-78
2022/01/18 03:15:05;;;;;;;0.17;0.17;;;4.20;99.90;;;;;;4991386;28;20541;-77
2022/01/18 03:17:30;;;;;;;0.22;0.22;;;4.20;99.90;;;;;;4993069;28;20405;-76
2022/01/18 03:19:56;;;;;;;0.05;0.05;;;4.10;99.90;;;;;;4993201;28;20029;-78
2022/01/18 03:22:22;;;;;;;0.35;0.35;;;4.10;99.90;;;;;;4992714;28;20113;-78
2022/01/18 03:24:58;;;;;;;1.00;0.38;;;4.00;99.90;;;;;;4991748;28;20034;-77
2022/01/18 03:30:10;;;;;;;0.00;0.00;;;3.90;99.90;;;;;;4992670;28;20076;-76
2022/01/18 03:32:36;;;;;;;0.10;0.10;;;3.80;99.90;;;;;;4992906;28;20539;-78
2022/01/18 03:35:05;;;;;;;0.00;0.00;;;3.70;99.90;;;;;;4993121;28;20050;-78
2022/01/18 03:37:30;;;;;;;0.00;0.00;;;3.60;99.90;;;;;;4992716;28;20030;-78
2022/01/18 03:39:56;;;;;;;0.10;0.10;;;3.50;99.90;;;;;;4993032;28;20081;-77
2022/01/18 03:45:27;;;;;;;0.32;0.32;;;3.40;99.90;;;;;;4964474;28;20039;-77
2022/01/18 03:47:58;;;;;;;0.00;0.00;;;3.30;99.90;;;;;;4972069;28;20122;-78
2022/01/18 03:50:24;;;;;;;0.00;0.00;;;3.20;99.90;;;;;;4973549;28;20038;-76
2022/01/18 03:52:50;;;;;;;0.00;0.00;;;3.20;99.90;;;;;;4972564;28;20062;-77
2022/01/18 03:55:18;;;;;;;0.00;0.00;;;3.10;99.90;;;;;;4973386;28;20062;-76
2022/01/18 03:57:44;;;;;;;0.03;0.03;;;3.00;99.90;;;;;;4973534;28;20487;-78
2022/01/18 04:00:19;;;;;;;0.10;0.10;;;3.00;99.90;;;;;;4973444;28;20109;-78
2022/01/18 04:02:45;;;;;;;1.98;0.55;;;3.00;99.90;;;;;;4973427;28;20531;-78
2022/01/18 04:05:12;;;;;;;0.20;0.20;;;2.90;99.90;;;;;;4988936;28;20027;-78
2022/01/18 04:07:39;;;;;;;0.03;0.03;;;2.90;99.90;;;;;;4992449;28;20033;-76
2022/01/18 04:10:06;;;;;;;0.00;0.00;;;2.90;99.90;;;;;;4992601;28;20026;-78
2022/01/18 04:12:34;;;;;;;0.45;0.45;;;2.90;99.90;;;;;;4991726;28;20034;-77
2022/01/18 04:15:00;;;;;;;0.00;0.00;;;2.90;99.90;;;;;;4990969;28;20137;-78
2022/01/18 04:30:40;;;;;;;0.65;0.55;;;2.90;99.90;;;;;;4995631;28;20033;-78
2022/01/18 04:33:05;;;;;;;0.15;0.15;;;2.80;99.90;;;;;;4995821;28;20030;-77
2022/01/18 04:35:31;;;;;;;0.00;0.00;;;2.80;99.90;;;;;;4996113;28;20049;-77
2022/01/18 04:37:57;;;;;;;0.00;0.00;;;2.70;99.90;;;;;;4995374;28;20101;-78
2022/01/18 04:40:28;;;;;;;0.00;0.00;;;2.70;99.90;;;;;;4994970;28;20023;-77
2022/01/18 04:50:50;;;;;;;2.75;1.48;;;2.60;99.90;;;;;;4976544;28;20089;-78
2022/01/18 04:53:16;;;;;;;0.25;0.25;;;2.60;99.90;;;;;;4975783;28;20035;-77
2022/01/18 04:55:42;;;;;;;0.00;0.00;;;2.60;99.90;;;;;;4976212;28;20158;-77
2022/01/18 04:58:07;;;;;;;0.10;0.10;;;2.60;99.90;;;;;;4976148;28;20050;-77
2022/01/18 05:00:33;;;;;;;0.25;0.20;;;2.60;99.90;;;;;;4975875;28;20031;-77
2022/01/18 05:02:59;;;;;;;0.00;0.00;;;2.50;99.90;;;;;;4976149;28;20398;-77
2022/01/18 05:05:26;;;;;;;0.00;0.00;;;2.50;99.90;;;;;;4993410;28;20019;-77
2022/01/18 05:07:53;;;;;;;0.20;0.20;;;2.50;99.90;;;;;;4994980;28;20027;-77
2022/01/18 05:10:25;;;;;;;0.45;0.45;;;2.40;99.90;;;;;;4993835;28;20035;-77
2022/01/18 05:12:53;;;;;;;0.00;0.00;;;2.50;99.90;;;;;;4994001;28;20121;-77
2022/01/18 05:15:38;;;;;;;0.30;0.28;;;2.50;99.90;;;;;;4994726;28;20054;-77
2022/01/18 05:23:04;;;;;;;0.00;0.00;;;2.40;99.90;;;;;;4995051;28;20256;-78
2022/01/18 05:25:31;;;;;;;0.55;0.55;;;2.40;99.90;;;;;;4995091;28;20061;-77
2022/01/18 05:27:58;;;;;;;2.42;0.65;;;2.40;99.90;;;;;;4995060;28;20029;-78
2022/01/18 05:30:24;;;;;;;0.00;0.00;;;2.40;99.90;;;;;;4993206;28;20053;-78
2022/01/18 05:32:50;;;;;;;0.00;0.00;;;2.30;99.90;;;;;;4994781;28;20026;-78
2022/01/18 05:35:15;;;;;;;0.43;0.43;;;2.30;99.90;;;;;;4993649;28;20030;-78
2022/01/18 05:37:42;;;;;;;17.58;0.70;;;2.30;99.90;;;;;;4994683;28;20030;-77
2022/01/18 05:40:08;;;;;;;0.05;0.05;;;2.20;99.90;;;;;;4994857;28;20023;-77
2022/01/18 05:42:33;;;;;;;0.00;0.00;;;2.20;99.90;;;;;;4994781;28;20557;-77
2022/01/18 05:44:59;;;;;;;0.00;0.00;;;2.20;99.90;;;;;;4991427;28;20093;-77
2022/01/18 05:47:26;;;;;;;0.90;0.65;;;2.10;99.90;;;;;;4975093;28;20038;-77
2022/01/18 05:49:51;;;;;;;0.40;0.40;;;2.10;99.90;;;;;;4973463;28;20449;-77
2022/01/18 05:52:17;;;;;;;2.13;0.57;;;2.10;99.90;;;;;;4974563;28;20110;-77
2022/01/18 05:54:43;;;;;;;0.10;0.10;;;2.10;99.90;;;;;;4974745;28;20027;-77
2022/01/18 05:57:08;;;;;;;0.22;0.22;;;2.10;99.90;;;;;;4982751;28;20022;-77
2022/01/18 05:59:37;;;;;;;0.00;0.00;;;2.20;99.90;;;;;;4993595;28;20023;-77
2022/01/18 06:02:15;;;;;;;0.20;0.20;;;2.20;99.90;;;;;;4978581;28;20041;-77
2022/01/18 06:07:25;;;;;;;0.55;0.55;;;2.10;99.90;;;;;;4993966;28;20029;-77
2022/01/18 06:09:53;;;;;;;1.95;1.30;;;2.10;99.90;;;;;;4993964;28;20398;-77
2022/01/18 06:12:19;;;;;;;1.55;1.45;;;2.00;99.90;;;;;;4993955;28;20096;-78
2022/01/18 06:14:45;;;;;;;0.43;0.43;;;2.00;99.90;;;;;;4992226;28;20604;-77
2022/01/18 06:17:11;;;;;;;0.20;0.20;;;1.90;99.90;;;;;;4993829;28;20034;-77
2022/01/18 06:19:36;;;;;;;0.40;0.40;;;1.90;99.90;;;;;;4993670;28;20038;-77
2022/01/18 06:22:02;;;;;;;0.30;0.30;;;1.90;99.90;;;;;;4992235;28;20025;-77
2022/01/18 06:24:28;;;;;;;7.90;2.25;;;1.90;99.90;;;;;;4993708;28;20030;-78
2022/01/18 06:26:54;;;;;;;0.32;0.32;;;1.90;99.90;;;;;;4993783;28;20102;-77
2022/01/18 06:29:21;;;;;;;0.20;0.20;;;1.90;99.90;;;;;;4993873;28;20114;-78
2022/01/18 06:31:47;;;;;;;0.08;0.08;;;1.90;99.90;;;;;;4993052;28;20015;-77
2022/01/18 06:34:14;;;;;;;0.38;0.38;;;1.90;99.90;;;;;;4993415;28;20494;-77
2022/01/18 06:36:41;;;;;;;0.77;0.77;;;1.90;99.90;;;;;;4993211;28;20069;-77
2022/01/18 06:39:07;;;;;;;0.30;0.30;;;2.00;99.90;;;;;;4993364;28;20069;-77
2022/01/18 06:41:32;;;;;;;0.52;0.52;;;2.00;99.90;;;;;;4989947;28;20037;-77
2022/01/18 06:43:58;;;;;;;1.00;1.00;;;2.00;99.90;;;;;;4993317;28;20481;-77
2022/01/18 06:46:24;;;;;;;0.28;0.28;;;1.90;99.90;;;;;;4978644;28;20023;-77
2022/01/18 06:48:50;;;;;;;0.85;0.80;;;1.90;99.90;;;;;;4972335;28;20046;-77
2022/01/18 06:51:15;;;;;;;0.20;0.20;;;1.90;99.90;;;;;;4980943;28;20105;-77
2022/01/18 06:53:46;;;;;;;0.57;0.57;;;1.90;99.90;;;;;;4992756;28;20433;-77
2022/01/18 06:56:17;;;;;;;0.10;0.10;;;1.80;99.90;;;;;;4986890;28;20459;-77
2022/01/18 06:58:43;;;;;;;0.08;0.08;;;1.80;99.90;;;;;;4978195;28;20033;-77
2022/01/18 07:01:10;;;;;;;0.00;0.00;;;1.90;99.90;;;;;;4981972;28;20381;-77
2022/01/18 07:03:36;;;;;;;0.10;0.10;;;1.90;99.90;;;;;;4987703;28;20018;-77
2022/01/18 07:06:02;;;;;;;1.30;1.08;;;1.90;99.90;;;;;;4982874;28;20408;-77
2022/01/18 07:08:28;;;;;;;0.35;0.35;;;1.80;99.90;;;;;;4986988;28;20031;-77
2022/01/18 07:10:53;;;;;;;0.35;0.35;;;1.80;99.90;;;;;;4987789;28;20030;-77
2022/01/18 07:13:19;;;;;;;1.70;0.40;;;1.70;99.90;;;;;;4989804;28;20034;-77
2022/01/18 07:15:45;;;;;;;0.00;0.00;;;1.70;99.90;;;;;;4989992;28;20046;-78
2022/01/18 07:18:11;;;;;;;0.10;0.10;;;1.70;99.90;;;;;;4986972;28;20106;-77
2022/01/18 07:20:38;;;;;;;0.75;0.75;;;1.60;99.90;;;;;;4978092;28;20038;-78
2022/01/18 07:23:07;;;;;;;0.10;0.10;;;1.60;99.90;;;;;;4986143;28;20030;-77
2022/01/18 07:25:33;;;;;;;0.25;0.25;;;1.50;99.90;;;;;;4985969;28;20065;-77
2022/01/18 07:27:59;;;;;;;0.00;0.00;;;1.50;99.90;;;;;;4983485;28;20026;-78
2022/01/18 07:30:25;;;;;;;0.55;0.40;;;1.50;99.90;;;;;;4990939;28;20137;-78
2022/01/18 07:32:50;;;;;;;0.28;0.28;;;1.50;99.90;;;;;;4989385;28;20069;-78
2022/01/18 07:35:16;;;;;;;1.30;0.82;;;1.50;99.90;;;;;;4986183;28;20027;-77
2022/01/18 07:37:43;;;;;;;0.10;0.10;;;1.40;99.90;;;;;;4978244;28;20133;-75
2022/01/18 07:40:09;;;;;;;0.32;0.32;;;1.40;99.90;;;;;;4983189;28;20045;-78
2022/01/18 07:42:35;;;;;;;0.17;0.17;;;1.40;99.90;;;;;;4979389;28;20539;-77
2022/01/18 07:45:01;;;;;;;0.77;0.77;;;1.50;99.90;;;;;;4987560;28;20026;-81
2022/01/18 07:47:26;;;;;;;0.10;0.10;;;1.50;99.90;;;;;;4984830;28;20027;-76
2022/01/18 07:49:52;;;;;;;0.32;0.32;;;1.60;99.90;;;;;;4982761;28;20041;-76
2022/01/18 07:52:18;;;;;;;1.35;0.82;;;1.60;99.90;;;;;;4984879;28;20037;-77
2022/01/18 07:54:44;;;;;;;0.00;0.00;;;1.80;99.90;;;;;;4983840;28;20488;-75
2022/01/18 07:57:12;;;;;;;0.25;0.25;;;1.90;99.90;;;;;;4987204;28;20042;-75
2022/01/18 07:59:38;;;;;;;0.43;0.43;;;2.00;99.90;;;;;;4982078;28;20081;-77
2022/01/18 08:02:04;;;;;;;0.05;0.05;;;2.20;99.90;;;;;;4987437;28;20040;-75
2022/01/18 08:04:29;;;;;;;0.35;0.35;;;2.30;99.90;;;;;;4989812;28;20386;-75
2022/01/18 08:06:55;;;;;;;0.32;0.25;;;2.40;99.90;;;;;;4981085;28;20069;-76
2022/01/18 08:09:21;;;;;;;0.00;0.00;;;2.50;99.90;;;;;;4981671;28;20042;-75
2022/01/18 08:11:47;;;;;;;0.00;0.00;;;2.50;99.90;;;;;;4979975;28;20118;-76
2022/01/18 08:14:16;;;;;;;0.38;0.38;;;2.60;99.90;;;;;;4986529;28;20456;-75
2022/01/18 08:16:48;;;;;;;0.63;0.60;;;2.70;99.90;;;;;;4987967;28;20031;-75
2022/01/18 08:19:14;;;;;;;1.03;0.47;;;2.80;99.90;;;;;;4988592;28;20461;-77
2022/01/18 08:21:40;;;;;;;0.10;0.10;;;2.80;99.90;;;;;;4982602;28;20030;-77
2022/01/18 08:24:06;;;;;;;0.30;0.30;;;2.90;99.90;;;;;;4989736;28;20025;-75
2022/01/18 08:26:32;;;;;;;1.92;1.13;;;2.90;99.90;;;;;;4989035;28;20026;-75
2022/01/18 08:28:57;;;;;;;0.30;0.30;;;3.00;99.90;;;;;;4985559;28;20393;-75
2022/01/18 08:31:23;;;;;;;0.32;0.32;;;3.00;99.90;;;;;;4976839;28;20074;-77
2022/01/18 08:33:48;;;;;;;1.30;1.20;;;3.10;99.90;;;;;;4990724;28;20031;-77
2022/01/18 08:36:14;;;;;;;0.30;0.30;;;3.20;99.90;;;;;;4992749;28;20482;-77
2022/01/18 08:38:40;;;;;;;0.10;0.10;;;3.20;99.90;;;;;;4978449;28;20026;-77
2022/01/18 08:41:06;;;;;;;0.63;0.63;;;3.30;99.90;;;;;;4982354;28;20030;-75
2022/01/18 08:43:33;;;;;;;0.08;0.08;;;3.30;99.90;;;;;;4984454;28;20027;-75
2022/01/18 08:46:03;;;;;;;0.57;0.57;;;3.40;99.90;;;;;;4989292;28;20106;-77
2022/01/18 08:48:29;;;;;;;0.70;0.70;;;3.50;99.90;;;;;;4985956;28;20026;-77
2022/01/18 08:50:54;;;;;;;0.98;0.90;;;3.50;99.90;;;;;;4987490;28;20386;-77
2022/01/18 08:53:20;;;;;;;0.00;0.00;;;3.60;99.90;;;;;;4987466;28;20058;-75
2022/01/18 08:55:46;;;;;;;0.60;0.60;;;3.70;99.90;;;;;;4990831;28;20494;-75
2022/01/18 08:58:12;;;;;;;0.03;0.03;;;3.80;99.90;;;;;;4985348;28;20022;-77
2022/01/18 09:00:38;;;;;;;0.57;0.45;;;3.80;99.90;;;;;;4985539;28;20374;-77
2022/01/18 09:03:04;;;;;;;0.47;0.47;;;3.90;99.90;;;;;;4990388;28;20065;-77
2022/01/18 09:05:30;;;;;;;0.13;0.13;;;4.00;99.90;;;;;;4980470;28;20053;-77
2022/01/18 09:08:00;;;;;;;0.85;0.85;;;4.10;99.90;;;;;;4982385;28;20030;-75
2022/01/18 09:10:26;;;;;;;0.40;0.40;;;4.10;99.90;;;;;;4992984;28;20097;-77
2022/01/18 09:12:52;;;;;;;0.00;0.00;;;4.20;99.90;;;;;;4986448;28;20552;-77
2022/01/18 09:15:18;;;;;;;0.00;0.00;;;4.20;99.90;;;;;;4985920;28;20050;-77
2022/01/18 09:17:44;;;;;;;0.00;0.00;;;4.40;99.90;;;;;;4985098;28;20092;-77
2022/01/18 09:20:12;;;;;;;6.03;1.63;;;4.50;99.90;;;;;;4986365;28;20157;-75
2022/01/18 09:22:43;;;;;;;0.00;0.00;;;4.50;99.90;;;;;;4983786;28;20623;-77
2022/01/18 09:25:16;;;;;;;3.25;1.85;;;4.60;99.90;;;;;;4985751;28;20030;-77
2022/01/18 09:27:42;;;;;;;0.20;0.20;;;4.70;99.90;;;;;;4983638;28;20076;-78
2022/01/18 09:30:09;;;;;;;0.75;0.47;;;4.80;99.90;;;;;;4990600;28;20030;-78
2022/01/18 09:32:34;;;;;;;0.88;0.85;;;4.80;99.90;;;;;;4983320;28;20521;-75
2022/01/18 09:35:00;;;;;;;0.68;0.68;;;4.80;99.90;;;;;;4990090;28;20085;-77
2022/01/18 09:37:26;;;;;;;1.10;1.00;;;4.80;99.90;;;;;;4973636;28;20478;-75
2022/01/18 09:39:53;;;;;;;0.10;0.10;;;4.90;99.90;;;;;;4975507;28;20403;-75
2022/01/18 09:42:23;;;;;;;0.47;0.47;;;5.00;99.90;;;;;;4982510;28;20022;-77
2022/01/18 09:44:49;;;;;;;0.50;0.50;;;5.10;99.90;;;;;;4990031;28;20065;-77
2022/01/18 09:47:15;;;;;;;0.25;0.25;;;5.10;99.90;;;;;;4987088;28;20065;-79
2022/01/18 09:49:40;;;;;;;0.95;0.73;;;5.10;99.90;;;;;;4990734;28;20037;-75
2022/01/18 09:52:06;;;;;;;0.75;0.75;;;5.20;99.90;;;;;;4989937;28;20441;-77
2022/01/18 09:54:33;;;;;;;0.00;0.00;;;5.20;99.90;;;;;;4991230;28;20037;-77
2022/01/18 09:56:58;;;;;;;1.10;0.98;;;5.20;99.90;;;;;;4989146;28;20022;-75
2022/01/18 09:59:24;;;;;;;0.38;0.38;;;5.30;99.90;;;;;;4987130;28;20022;-75
2022/01/18 10:01:50;;;;;;;0.10;0.10;;;5.50;99.90;;;;;;4990629;28;20035;-77
2022/01/18 10:04:26;;;;;;;0.00;0.00;;;5.60;99.90;;;;;;4990357;28;20042;-77
2022/01/18 10:06:56;;;;;;;0.15;0.15;;;5.60;99.90;;;;;;4988839;28;20072;-79
2022/01/18 10:09:23;;;;;;;0.43;0.43;;;5.70;99.90;;;;;;4985981;28;20497;-78
2022/01/18 10:12:12;;;;;;;0.10;0.10;;;5.80;99.90;;;;;;4985073;28;20061;-76
2022/01/18 10:14:52;;;;;;;0.17;0.17;;;5.90;99.90;;;;;;4988481;28;20121;-78
2022/01/18 10:17:36;;;;;;;1.45;0.55;;;6.00;99.90;;;;;;4987067;28;20418;-78
2022/01/18 10:20:09;;;;;;;0.05;0.05;;;6.10;99.90;;;;;;4984068;28;20041;-78
2022/01/18 10:22:44;;;;;;;0.43;0.43;;;6.00;99.90;;;;;;4981364;28;20141;-77
2022/01/18 10:25:17;;;;;;;0.00;0.00;;;6.00;99.90;;;;;;4989403;28;20054;-76
2022/01/18 10:27:52;;;;;;;0.20;0.20;;;6.10;99.90;;;;;;4982242;28;20037;-76
2022/01/18 10:30:45;;;;;;;0.00;0.00;;;6.30;99.90;;;;;;4984303;28;20054;-77
2022/01/18 10:33:16;;;;;;;0.03;0.03;;;6.40;99.90;;;;;;4981404;28;20039;-78
2022/01/18 10:36:01;;;;;;;0.30;0.30;;;6.50;99.90;;;;;;4986285;28;20110;-77
2022/01/18 10:38:27;;;;;;;0.30;0.30;;;6.50;99.90;;;;;;4973207;28;20038;-75
2022/01/18 10:40:52;;;;;;;1.13;0.75;;;6.60;99.90;;;;;;4982967;28;20022;-78
2022/01/18 10:43:32;;;;;;;4.20;0.90;;;6.70;99.90;;;;;;4992802;28;20030;-77
2022/01/18 10:46:13;;;;;;;0.10;0.10;;;6.80;99.90;;;;;;4992551;28;20073;-78
2022/01/18 10:48:47;;;;;;;0.03;0.03;;;6.80;99.90;;;;;;4991619;28;20397;-78
2022/01/18 10:51:29;;;;;;;0.20;0.20;;;6.70;99.90;;;;;;4988150;28;20030;-75
2022/01/18 10:54:00;;;;;;;0.52;0.47;;;6.50;99.90;;;;;;4989978;28;20046;-78
2022/01/18 10:56:40;;;;;;;0.10;0.10;;;6.30;99.90;;;;;;4986168;28;20416;-77
2022/01/18 10:59:07;;;;;;;0.00;0.00;;;6.20;99.90;;;;;;4991383;28;20019;-78
2022/01/18 11:01:33;;;;;;;0.05;0.05;;;6.20;99.90;;;;;;4990401;28;20077;-78
2022/01/18 11:04:14;;;;;;;4.95;0.35;;;6.30;99.90;;;;;;4989639;28;20445;-75
2022/01/18 11:06:43;;;;;;;0.55;0.55;;;6.80;99.90;;;;;;4990540;28;20030;-78
2022/01/18 11:09:14;;;;;;;0.30;0.30;;;7.30;99.90;;;;;;4992370;28;20041;-78
2022/01/18 11:11:45;;;;;;;0.10;0.10;;;7.70;99.90;;;;;;4990871;28;20031;-78
2022/01/18 11:14:13;;;;;;;0.28;0.20;;;7.70;99.90;;;;;;4973227;28;20090;-78
2022/01/18 11:16:42;;;;;;;0.13;0.13;;;8.00;99.90;;;;;;4987753;28;20050;-78
2022/01/18 11:19:26;;;;;;;0.10;0.10;;;8.20;99.90;;;;;;4991372;28;20154;-78
2022/01/18 11:21:55;;;;;;;0.20;0.20;;;8.10;99.90;;;;;;4991570;28;20097;-78
2022/01/18 11:24:21;;;;;;;0.28;0.28;;;7.80;99.90;;;;;;4973946;28;20041;-78
2022/01/18 11:26:49;;;;;;;1.85;0.40;;;7.70;99.90;;;;;;4978904;28;20035;-78
2022/01/18 11:29:17;;;;;;;0.10;0.10;;;7.50;99.90;;;;;;4988851;28;20069;-75
2022/01/18 11:31:47;;;;;;;0.00;0.00;;;7.30;99.90;;;;;;4980564;28;20031;-75
2022/01/18 11:34:23;;;;;;;1.00;0.80;;;7.40;99.90;;;;;;4982922;28;20125;-77
2022/01/18 11:36:50;;;;;;;0.45;0.45;;;7.20;99.90;;;;;;4992830;28;20162;-78
2022/01/18 11:39:17;;;;;;;5.72;0.77;;;7.10;99.90;;;;;;4992759;28;20023;-78
2022/01/18 11:41:43;;;;;;;0.15;0.15;;;7.10;99.90;;;;;;4983083;28;20551;-75
2022/01/18 11:44:26;;;;;;;0.03;0.03;;;7.20;99.90;;;;;;4996064;28;20371;-75
2022/01/18 11:46:55;;;;;;;0.00;0.00;;;7.20;99.90;;;;;;4985320;28;20089;-77
2022/01/18 11:49:27;;;;;;;0.03;0.03;;;7.10;99.90;;;;;;4983783;28;20454;-78
2022/01/18 11:52:09;;;;;;;0.08;0.08;;;7.10;99.90;;;;;;4985113;28;20034;-77
2022/01/18 11:57:22;;;;;;;0.20;0.20;;;7.10;99.90;;;;;;4985007;28;20045;-75
2022/01/18 11:59:58;;;;;;;0.10;0.10;;;7.00;99.90;;;;;;4985449;28;20022;-78
2022/01/18 12:02:29;;;;;;;0.20;0.20;;;7.00;99.90;;;;;;4983492;28;20034;-77
2022/01/18 12:04:57;;;;;;;0.00;0.00;;;7.00;99.90;;;;;;4982902;28;20434;-78
2022/01/18 12:07:53;;;;;;;0.32;0.32;;;7.10;99.90;;;;;;4994349;28;20026;-75
2022/01/18 12:10:31;;;;;;;0.00;0.00;;;7.20;99.90;;;;;;4993668;28;20027;-75
2022/01/18 12:12:59;;;;;;;0.30;0.30;;;7.20;99.90;;;;;;4989114;28;20425;-78
2022/01/18 12:15:26;;;;;;;0.17;0.10;;;7.30;99.90;;;;;;4988599;28;20038;-75
2022/01/18 12:18:02;;;;;;;0.00;0.00;;;7.30;99.90;;;;;;4985834;28;20038;-77
2022/01/18 12:20:46;;;;;;;0.05;0.03;;;7.40;99.90;;;;;;4984086;28;20026;-75
2022/01/18 12:23:17;;;;;;;0.28;0.28;;;7.40;99.90;;;;;;4989799;28;20022;-75
2022/01/18 12:26:00;;;;;;;0.00;0.00;;;7.50;99.90;;;;;;4988226;28;20031;-77
2022/01/18 12:34:28;;;;;;;0.30;0.30;;;7.50;99.90;;;;;;4992012;28;19972;-75
2022/01/18 12:37:11;;;;;;;0.20;0.20;;;7.50;99.90;;;;;;4987683;28;20352;-78
2022/01/18 12:44:53;;;;;;;0.17;0.17;;;7.40;99.90;;;;;;4986494;28;20611;-78
2022/01/18 12:47:18;;;;;;;0.52;0.50;;;7.40;99.90;;;;;;4986344;28;20412;-75
2022/01/18 12:49:47;;;;;;;0.10;0.10;;;7.40;99.90;;;;;;4979934;28;20114;-75
2022/01/18 12:52:13;;;;;;;0.00;0.00;;;7.50;99.90;;;;;;4983525;28;20441;-77
2022/01/18 12:54:42;;;;;;;0.10;0.10;;;7.60;99.90;;;;;;4990611;28;20025;-78
2022/01/18 12:57:22;;;;;;;2.15;0.20;;;7.60;99.90;;;;;;4988564;28;20023;-75
2022/01/18 13:00:00;;;;;;;1.10;0.28;;;7.60;99.90;;;;;;4986514;28;20065;-75
2022/01/18 13:02:27;;;;;;;0.00;0.00;;;7.70;99.90;;;;;;4985667;28;20154;-75
2022/01/18 13:05:00;;;;;;;0.30;0.30;;;7.70;99.90;;;;;;4992077;28;20393;-78
2022/01/18 13:07:26;;;;;;;0.75;0.43;;;7.80;99.90;;;;;;4990075;28;20066;-78
2022/01/18 13:10:01;;;;;;;2.55;0.38;;;7.80;99.90;;;;;;4992119;28;20113;-77
2022/01/18 13:12:31;;;;;;;0.10;0.10;;;7.80;99.90;;;;;;4987610;28;20082;-75
2022/01/18 13:14:59;;;;;;;0.00;0.00;;;7.80;99.90;;;;;;4992211;28;20085;-75
2022/01/18 13:23:38;;;;;;;0.00;0.00;;;7.70;99.90;;;;;;4990965;28;20555;-78
2022/01/18 13:26:04;;;;;;;1.85;0.52;;;7.70;99.90;;;;;;4993574;28;20018;-75
2022/01/18 13:28:37;;;;;;;1.85;1.08;;;7.70;99.90;;;;;;4990021;28;20037;-75
2022/01/18 13:31:18;;;;;;;0.00;0.00;;;7.70;99.90;;;;;;4990753;28;20038;-77
2022/01/18 13:33:59;;;;;;;0.00;0.00;;;7.60;99.90;;;;;;4991872;28;20034;-77
2022/01/18 13:36:28;;;;;;;0.35;0.35;;;7.50;99.90;;;;;;4991203;28;20033;-78
2022/01/18 13:38:54;;;;;;;0.28;0.28;;;7.50;99.90;;;;;;4992253;28;20030;-75
2022/01/18 13:41:20;;;;;;;1.75;0.90;;;7.40;99.90;;;;;;4993304;28;20026;-75
2022/01/18 13:43:47;;;;;;;0.63;0.63;;;7.50;99.90;;;;;;4989518;28;20034;-76
2022/01/18 13:46:26;;;;;;;0.00;0.00;;;7.60;99.90;;;;;;4984184;28;20026;-78
2022/01/18 13:49:09;;;;;;;0.35;0.15;;;7.60;99.90;;;;;;4981724;28;20046;-78
2022/01/18 13:51:35;;;;;;;0.00;0.00;;;7.70;99.90;;;;;;4981162;28;20165;-76
2022/01/18 13:54:08;;;;;;;0.13;0.13;;;7.70;99.90;;;;;;4988210;28;20042;-76
2022/01/18 13:56:34;;;;;;;0.00;0.00;;;7.70;99.90;;;;;;4993036;28;20022;-78
2022/01/18 13:59:05;;;;;;;3.40;0.43;;;7.60;99.90;;;;;;4993155;28;20062;-76
2022/01/18 14:01:36;;;;;;;1.35;0.60;;;7.70;99.90;;;;;;4990000;28;20033;-79
2022/01/18 14:04:15;;;;;;;0.05;0.05;;;7.70;99.90;;;;;;4985942;28;20077;-76
2022/01/18 14:06:43;;;;;;;0.32;0.32;;;7.70;99.90;;;;;;4983749;28;20033;-76
2022/01/18 14:09:10;;;;;;;0.00;0.00;;;7.70;99.90;;;;;;4979441;28;20138;-80
2022/01/18 14:11:38;;;;;;;0.65;0.22;;;7.70;99.90;;;;;;4973329;28;20470;-78
2022/01/18 14:14:22;;;;;;;0.00;0.00;;;7.70;99.90;;;;;;4988700;28;20030;-78
2022/01/18 14:16:49;;;;;;;0.55;0.55;;;7.70;99.90;;;;;;4989720;28;20096;-79
2022/01/18 14:19:24;;;;;;;0.20;0.20;;;7.70;99.90;;;;;;4991504;28;20170;-75
2022/01/18 14:21:50;;;;;;;1.17;0.88;;;7.70;99.90;;;;;;4989092;28;20502;-80
2022/01/18 14:24:38;;;;;;;0.00;0.00;;;7.60;99.90;;;;;;4988686;28;20526;-79
2022/01/18 14:27:09;;;;;;;0.25;0.25;;;7.70;99.90;;;;;;4983162;28;20035;-79
2022/01/18 14:29:40;;;;;;;0.00;0.00;;;7.60;99.90;;;;;;4990981;28;20030;-79
2022/01/18 14:32:13;;;;;;;0.40;0.40;;;7.50;99.90;;;;;;4991828;28;20030;-75
2022/01/18 14:34:47;;;;;;;0.10;0.10;;;7.50;99.90;;;;;;4988467;28;20038;-78
2022/01/18 14:37:13;;;;;;;0.00;0.00;;;7.50;99.90;;;;;;4989712;28;20124;-79
2022/01/18 14:40:00;;;;;;;0.25;0.25;;;7.50;99.90;;;;;;4983610;28;20042;-79
2022/01/18 14:42:46;;;;;;;0.98;0.32;;;7.50;99.90;;;;;;4981419;28;20015;-80
2022/01/18 14:47:41;;;;;;;0.15;0.15;;;7.60;99.90;;;;;;4975046;28;20026;-81
2022/01/18 14:50:16;;;;;;;0.10;0.10;;;7.50;99.90;;;;;;4996270;28;20045;-80
2022/01/18 14:52:44;;;;;;;0.32;0.32;;;7.50;99.90;;;;;;4993046;28;20030;-78